Time;durP1;ratioP1;P1;durP2;ratioP2;P2;SDS_P1;SDS_P2;PMS_P1;PMS_P2;Temp;Humidity;BMP_temperature;BMP_pressure;BME280_temperature;BME280_humidity;BME280_pressure;Samples;Min_cycle;Max_cycle;Signal;HPM_P1;HPM_P2
2022/10/23 00:01:21;;;;;;;12.60;9.25;;;;;;;7.39;78.12;99671.31;5083127;28;20088;-67
2022/10/23 00:03:51;;;;;;;13.15;9.35;;;;;;;7.36;78.20;99680.81;5100693;28;20028;-67
2022/10/23 00:06:17;;;;;;;14.68;9.40;;;;;;;7.38;78.49;99667.06;5098927;28;20032;-67
2022/10/23 00:08:44;;;;;;;14.48;9.93;;;;;;;7.40;78.68;99665.31;5093314;28;20442;-67
2022/10/23 00:11:12;;;;;;;14.15;9.57;;;;;;;7.22;78.74;99642.28;5086959;28;20062;-67
2022/10/23 00:13:38;;;;;;;12.05;9.05;;;;;;;7.31;79.38;99652.53;5103349;28;20304;-67
2022/10/23 00:16:04;;;;;;;15.32;9.27;;;;;;;7.25;78.72;99671.47;5083025;28;20073;-66
2022/10/23 00:18:30;;;;;;;13.95;9.07;;;;;;;7.26;79.18;99656.84;5098198;28;20091;-68
2022/10/23 00:20:56;;;;;;;13.38;9.98;;;;;;;7.32;79.39;99654.22;5092498;28;20251;-67
2022/10/23 00:23:22;;;;;;;14.30;8.77;;;;;;;7.31;79.68;99647.38;5088324;28;20043;-68
2022/10/23 00:25:47;;;;;;;12.80;8.57;;;;;;;7.37;78.90;99641.31;5082607;28;20028;-67
2022/10/23 00:28:13;;;;;;;15.15;8.80;;;;;;;7.40;78.65;99646.44;5082926;28;20035;-67
2022/10/23 00:30:39;;;;;;;12.65;8.60;;;;;;;7.29;79.55;99641.34;5099125;28;20308;-67
2022/10/23 00:33:04;;;;;;;11.90;9.07;;;;;;;7.28;78.79;99637.06;5091326;28;20028;-67
2022/10/23 00:35:30;;;;;;;17.30;9.45;;;;;;;7.32;78.86;99636.19;5089613;28;20024;-67
2022/10/23 00:37:56;;;;;;;11.18;8.52;;;;;;;7.31;79.08;99624.19;5100791;28;20039;-67
2022/10/23 00:40:21;;;;;;;11.07;8.73;;;;;;;7.36;78.05;99624.13;5082794;28;20217;-66
2022/10/23 00:42:47;;;;;;;14.90;9.20;;;;;;;7.35;79.39;99622.41;5099955;28;20292;-67
2022/10/23 00:45:19;;;;;;;13.57;9.10;;;;;;;7.23;78.46;99623.41;5091447;28;20062;-67
2022/10/23 00:47:46;;;;;;;;;;;;;;;7.25;78.53;99625.09;5097142;28;20048;-68
2022/10/23 00:50:11;;;;;;;9.55;7.70;;;;;;;7.35;79.29;99617.25;5090362;28;19912;-67
2022/10/23 00:52:44;;;;;;;11.25;8.48;;;;;;;7.29;78.68;99601.88;5106939;28;20077;-67
2022/10/23 00:55:10;;;;;;;13.48;8.43;;;;;;;7.20;78.84;99610.53;5085126;28;20051;-67
2022/10/23 00:57:39;;;;;;;12.00;8.18;;;;;;;7.15;79.12;99610.56;5102635;28;20336;-67
2022/10/23 01:00:05;;;;;;;12.45;8.82;;;;;;;7.13;77.98;99608.91;5094617;28;20071;-67
2022/10/23 01:02:31;;;;;;;10.52;8.20;;;;;;;7.17;78.44;99606.28;5092599;28;20024;-68
2022/10/23 01:04:57;;;;;;;10.43;8.00;;;;;;;7.13;78.02;99603.75;5098208;28;20030;-67
2022/10/23 01:07:54;;;;;;;11.63;8.57;;;;;;;7.16;78.37;99601.13;5106331;28;20370;-67
2022/10/23 01:10:38;;;;;;;11.27;8.05;;;;;;;6.92;78.39;99603.03;5086065;28;20078;-67
2022/10/23 01:13:10;;;;;;;11.00;8.02;;;;;;;6.91;78.61;99567.84;5105182;28;20316;-68
2022/10/23 01:15:57;;;;;;;13.95;8.95;;;;;;;6.90;79.00;99595.34;5091465;28;20039;-66
2022/10/23 01:18:44;;;;;;;11.50;8.43;;;;;;;7.00;78.00;99596.13;5101487;28;20024;-68
2022/10/23 01:21:22;;;;;;;9.43;7.72;;;;;;;7.02;78.23;99588.38;5094987;28;20333;-67
2022/10/23 01:24:30;;;;;;;10.88;8.13;;;;;;;7.06;77.50;99590.91;5091518;28;20193;-68
2022/10/23 01:27:19;;;;;;;13.60;8.32;;;;;;;6.99;77.60;99589.25;5077325;28;20039;-68
2022/10/23 01:29:52;;;;;;;11.85;8.25;;;;;;;7.01;77.49;99587.53;5094032;28;20040;-68
2022/10/23 01:32:36;;;;;;;11.55;8.32;;;;;;;7.11;77.70;99583.13;5099925;28;20217;-68
2022/10/23 01:35:23;;;;;;;10.70;8.40;;;;;;;7.02;77.95;99583.22;5087601;28;20155;-68
2022/10/23 01:38:27;;;;;;;11.98;8.60;;;;;;;7.03;77.29;99583.22;5103696;28;20063;-67
2022/10/23 01:41:13;;;;;;;10.45;8.57;;;;;;;6.97;77.42;99580.69;5067443;28;20052;-67
2022/10/23 01:44:10;;;;;;;12.35;8.90;;;;;;;6.83;77.57;99572.25;5105220;28;20351;-67
2022/10/23 01:46:36;;;;;;;11.70;8.05;;;;;;;6.85;77.97;99570.50;5084514;28;20082;-67
2022/10/23 01:49:06;;;;;;;12.75;9.15;;;;;;;6.80;77.20;99565.38;5103776;28;20038;-67
2022/10/23 01:51:34;;;;;;;14.75;9.05;;;;;;;6.88;77.06;99567.88;5105288;28;20027;-67
2022/10/23 01:54:00;;;;;;;15.05;8.80;;;;;;;6.81;77.60;99564.53;5095038;28;20087;-67
2022/10/23 01:56:32;;;;;;;10.43;8.50;;;;;;;6.79;77.78;99570.56;5085109;28;20033;-66
2022/10/23 01:59:02;;;;;;;14.40;9.43;;;;;;;6.81;78.09;99564.53;5089361;28;20034;-65
2022/10/23 02:01:30;;;;;;;12.98;8.55;;;;;;;6.67;77.49;99546.63;5084982;28;20031;-66
2022/10/23 02:03:58;;;;;;;15.98;9.18;;;;;;;6.69;77.44;99568.03;5090584;28;20016;-67
2022/10/23 02:06:23;;;;;;;14.82;9.18;;;;;;;6.74;78.07;99557.69;5101924;28;20421;-66
2022/10/23 02:08:49;;;;;;;13.63;8.60;;;;;;;6.64;77.39;99553.50;5095146;28;20095;-66
2022/10/23 02:11:20;;;;;;;12.55;8.38;;;;;;;6.48;77.57;99543.31;5088610;28;20024;-66
2022/10/23 02:13:58;;;;;;;11.53;9.07;;;;;;;6.39;78.65;99546.81;5103781;28;20068;-66
2022/10/23 02:16:48;;;;;;;14.50;9.18;;;;;;;6.47;77.88;99554.50;5084603;28;20165;-66
2022/10/23 02:19:40;;;;;;;13.57;8.88;;;;;;;6.38;78.63;99554.53;5091195;28;20068;-68
2022/10/23 02:22:24;;;;;;;13.55;8.80;;;;;;;6.01;79.47;99529.91;5090656;28;20040;-68
2022/10/23 02:25:10;;;;;;;13.40;9.55;;;;;;;6.08;80.49;99540.16;5089880;28;20069;-68
2022/10/23 02:27:50;;;;;;;15.05;9.95;;;;;;;6.08;80.68;99535.00;5094442;28;20041;-69
2022/10/23 02:30:17;;;;;;;17.65;9.20;;;;;;;6.04;80.57;99545.31;5093548;28;20028;-68
2022/10/23 02:32:50;;;;;;;13.05;8.95;;;;;;;6.07;80.79;99538.44;5093846;28;20028;-68
2022/10/23 02:35:17;;;;;;;12.20;8.90;;;;;;;6.24;80.04;99549.47;5095536;28;20028;-67
2022/10/23 02:37:42;;;;;;;16.33;10.70;;;;;;;6.11;80.76;99542.69;5092565;28;20059;-69
2022/10/23 02:40:10;;;;;;;14.70;9.07;;;;;;;6.22;80.16;99549.47;5097265;28;20239;-69
2022/10/23 02:42:39;;;;;;;14.05;9.55;;;;;;;6.03;80.55;99533.31;5105800;28;20027;-67
2022/10/23 02:45:14;;;;;;;11.25;9.35;;;;;;;6.08;80.67;99535.00;5113980;28;20050;-67
2022/10/23 02:47:51;;;;;;;15.00;10.10;;;;;;;5.99;81.45;99541.06;5095947;28;20032;-67
2022/10/23 02:50:23;;;;;;;16.08;10.07;;;;;;;6.01;80.95;99542.78;5084074;28;20025;-66
2022/10/23 02:52:57;;;;;;;13.40;9.63;;;;;;;5.90;81.45;99536.78;5083737;28;20087;-66
2022/10/23 02:55:46;;;;;;;15.05;10.82;;;;;;;5.77;81.69;99524.84;5082773;28;20221;-67
2022/10/23 02:58:35;;;;;;;13.30;11.13;;;;;;;5.85;81.44;99535.94;5101387;28;20043;-67
2022/10/23 03:01:23;;;;;;;15.77;10.82;;;;;;;5.75;81.83;99521.44;5060795;28;20313;-67
2022/10/23 03:03:58;;;;;;;16.05;11.20;;;;;;;5.78;82.46;99524.00;5099974;28;20040;-68
2022/10/23 03:06:24;;;;;;;15.27;10.65;;;;;;;5.76;82.37;99530.84;5099509;28;20265;-67
2022/10/23 03:08:57;;;;;;;12.20;10.70;;;;;;;5.85;81.77;99520.53;5103397;28;20035;-68
2022/10/23 03:11:23;;;;;;;14.48;10.32;;;;;;;5.85;81.63;99526.50;5099510;28;20032;-67
2022/10/23 03:13:49;;;;;;;15.48;10.02;;;;;;;5.80;81.68;99515.41;5082255;28;20048;-67
2022/10/23 03:16:15;;;;;;;16.83;11.35;;;;;;;5.65;81.84;99507.78;5089245;28;20316;-66
2022/10/23 03:18:40;;;;;;;15.05;11.65;;;;;;;5.70;81.86;99514.59;5098604;28;20085;-66
2022/10/23 03:21:06;;;;;;;13.95;11.18;;;;;;;5.66;82.47;99518.03;5092027;28;20060;-66
2022/10/23 03:23:32;;;;;;;14.73;11.30;;;;;;;5.70;82.37;99504.31;5090545;28;20027;-67
2022/10/23 03:25:57;;;;;;;16.90;11.70;;;;;;;5.70;82.35;99499.19;5083952;28;20224;-67
2022/10/23 03:28:23;;;;;;;18.20;12.00;;;;;;;5.63;82.09;99510.34;5103723;28;20035;-67
2022/10/23 03:30:49;;;;;;;14.70;11.00;;;;;;;5.67;82.02;99509.47;5088051;28;20028;-67
2022/10/23 03:33:14;;;;;;;22.20;15.05;;;;;;;5.64;82.11;99506.94;5084110;28;20041;-67
2022/10/23 03:35:40;;;;;;;17.60;12.70;;;;;;;5.65;82.32;99508.63;5088773;28;20079;-67
2022/10/23 03:38:05;;;;;;;18.40;11.57;;;;;;;5.74;81.80;99504.31;5084937;28;20203;-68
2022/10/23 03:40:31;;;;;;;15.38;11.05;;;;;;;5.68;82.17;99507.75;5103448;28;20028;-68
2022/10/23 03:42:57;;;;;;;16.77;12.25;;;;;;;5.53;82.81;99500.97;5086181;28;20062;-67
2022/10/23 03:45:23;;;;;;;16.15;12.15;;;;;;;5.46;83.39;99496.72;5095778;28;20071;-67
2022/10/23 03:47:50;;;;;;;18.23;12.85;;;;;;;5.42;83.51;99495.88;5091740;28;20087;-67
2022/10/23 03:50:16;;;;;;;15.35;11.75;;;;;;;5.47;82.91;99490.72;5100503;28;20103;-67
2022/10/23 03:52:42;;;;;;;15.07;11.57;;;;;;;5.44;82.94;99495.88;5097475;28;20063;-68
2022/10/23 03:55:08;;;;;;;18.55;12.75;;;;;;;5.34;83.85;99484.78;5104994;28;20039;-68
2022/10/23 03:57:34;;;;;;;18.90;12.63;;;;;;;5.40;83.55;99487.34;5089769;28;20247;-67
2022/10/23 04:00:00;;;;;;;17.35;11.60;;;;;;;5.47;83.23;99490.72;5091921;28;20286;-67
2022/10/23 04:02:26;;;;;;;18.70;11.65;;;;;;;5.56;83.07;99484.69;5099036;28;20028;-67
2022/10/23 04:04:51;;;;;;;18.75;12.52;;;;;;;5.45;83.05;99482.19;5084846;28;20343;-67
2022/10/23 04:07:17;;;;;;;15.07;11.50;;;;;;;5.32;83.27;99484.78;5102607;28;20023;-67
2022/10/23 04:09:42;;;;;;;16.65;12.50;;;;;;;5.39;83.80;99485.63;5088150;28;20029;-66
2022/10/23 04:12:08;;;;;;;20.48;13.90;;;;;;;5.47;83.32;99489.03;5083041;28;20031;-67
2022/10/23 04:14:34;;;;;;;20.75;12.70;;;;;;;5.33;83.67;99477.91;5089551;28;20028;-66
2022/10/23 04:16:59;;;;;;;17.65;12.38;;;;;;;5.35;83.50;99484.75;5104414;28;20066;-67
2022/10/23 04:19:25;;;;;;;19.20;11.88;;;;;;;5.11;84.34;99479.72;5085325;28;20040;-66
2022/10/23 04:21:51;;;;;;;16.98;12.38;;;;;;;5.14;84.57;99480.53;5102682;28;20081;-68
2022/10/23 04:24:16;;;;;;;20.45;13.15;;;;;;;5.26;84.61;99471.97;5099150;28;20032;-67
2022/10/23 04:26:42;;;;;;;15.68;11.65;;;;;;;5.32;84.25;99477.06;5100673;28;20224;-66
2022/10/23 04:29:07;;;;;;;19.73;13.23;;;;;;;5.27;84.12;99477.94;5087831;28;20043;-67
2022/10/23 04:31:33;;;;;;;20.45;13.38;;;;;;;5.23;83.95;99471.09;5106760;28;20251;-66
2022/10/23 04:33:58;;;;;;;42.78;32.55;;;;;;;5.08;84.72;99467.75;5089759;28;20045;-66
2022/10/23 04:36:24;;;;;;;33.45;25.23;;;;;;;5.13;84.39;99466.03;5098579;28;20051;-67
2022/10/23 04:38:50;;;;;;;28.40;21.58;;;;;;;5.23;84.04;99471.97;5098122;28;20032;-67
2022/10/23 04:41:15;;;;;;;22.88;14.43;;;;;;;5.17;84.54;99454.88;5086945;28;20027;-67
2022/10/23 04:43:41;;;;;;;21.17;14.13;;;;;;;5.29;83.91;99466.81;5086157;28;20024;-67
2022/10/23 04:46:07;;;;;;;22.17;13.25;;;;;;;5.26;83.84;99454.00;5104027;28;20328;-66
2022/10/23 04:48:32;;;;;;;21.75;16.27;;;;;;;5.29;83.88;99455.72;5091994;28;20020;-67
2022/10/23 04:51:01;;;;;;;20.15;13.88;;;;;;;5.25;83.98;99457.41;5084701;28;20101;-68
2022/10/23 04:53:27;;;;;;;21.58;13.70;;;;;;;5.25;84.36;99448.88;5090172;28;20287;-67
2022/10/23 04:55:54;;;;;;;22.23;16.15;;;;;;;5.27;84.39;99442.00;5106272;28;20084;-68
2022/10/23 04:58:21;;;;;;;25.45;17.80;;;;;;;5.32;83.90;99441.13;5086556;28;20047;-67
2022/10/23 05:00:47;;;;;;;21.25;15.35;;;;;;;5.28;83.97;99447.13;5100933;28;20028;-68
2022/10/23 05:03:14;;;;;;;21.98;13.60;;;;;;;5.25;84.19;99451.44;5094626;28;20031;-68
2022/10/23 05:05:40;;;;;;;21.13;13.57;;;;;;;5.29;84.22;99455.72;5094742;28;20347;-68
2022/10/23 05:08:06;;;;;;;21.75;14.68;;;;;;;5.23;84.34;99446.31;5105585;28;20030;-67
2022/10/23 05:10:32;;;;;;;21.13;14.55;;;;;;;5.21;85.03;99452.31;5084793;28;20212;-67
2022/10/23 05:12:57;;;;;;;25.70;16.02;;;;;;;5.33;84.40;99453.13;5101778;28;20031;-69
2022/10/23 05:15:23;;;;;;;23.02;14.77;;;;;;;5.32;84.50;99448.84;5094295;28;20028;-67
2022/10/23 05:17:53;;;;;;;20.35;15.23;;;;;;;5.34;83.91;99428.28;5092411;28;20024;-67
2022/10/23 05:20:24;;;;;;;23.13;14.88;;;;;;;5.32;83.82;99424.88;5103419;28;20056;-67
2022/10/23 05:22:52;;;;;;;18.33;14.13;;;;;;;5.45;84.13;99446.22;5092256;28;20020;-67
2022/10/23 05:25:18;;;;;;;19.98;14.60;;;;;;;5.50;84.01;99457.31;5086748;28;20108;-67
2022/10/23 05:27:43;;;;;;;24.02;15.77;;;;;;;5.40;83.89;99448.81;5094100;28;20311;-67
2022/10/23 05:30:10;;;;;;;22.65;14.88;;;;;;;5.54;83.84;99441.03;5095697;28;20029;-67
2022/10/23 05:32:36;;;;;;;21.60;14.00;;;;;;;5.70;83.42;99445.25;5090017;28;20028;-68
2022/10/23 05:35:09;;;;;;;19.45;14.38;;;;;;;5.83;82.88;99443.44;5105421;28;20369;-68
2022/10/23 05:37:40;;;;;;;20.83;15.35;;;;;;;5.69;83.02;99432.41;5085243;28;20048;-68
2022/10/23 05:40:06;;;;;;;24.02;14.68;;;;;;;5.90;82.56;99449.41;5102832;28;20028;-68
2022/10/23 05:42:32;;;;;;;23.42;15.90;;;;;;;5.82;83.08;99452.00;5094158;28;20066;-66
2022/10/23 05:44:58;;;;;;;23.50;16.00;;;;;;;5.85;82.33;99439.13;5093036;28;20030;-67
2022/10/23 05:47:23;;;;;;;22.40;14.68;;;;;;;5.95;81.92;99444.22;5097460;28;20225;-67
2022/10/23 05:49:49;;;;;;;23.15;15.25;;;;;;;5.86;82.55;99452.84;5094559;28;20024;-68
2022/10/23 05:52:14;;;;;;;23.10;15.20;;;;;;;5.92;82.56;99449.41;5092958;28;20028;-68
2022/10/23 05:54:40;;;;;;;20.42;14.70;;;;;;;5.99;82.15;99445.97;5092606;28;20016;-67
2022/10/23 05:57:06;;;;;;;24.35;16.20;;;;;;;5.99;82.29;99439.09;5094715;28;20037;-68
2022/10/23 05:59:31;;;;;;;24.15;16.60;;;;;;;5.94;82.75;99448.50;5094822;28;20300;-67
2022/10/23 06:01:57;;;;;;;20.33;15.27;;;;;;;5.88;82.44;99438.28;5089730;28;20027;-68
2022/10/23 06:04:22;;;;;;;21.75;14.80;;;;;;;5.81;82.66;99434.03;5096237;28;20040;-67
2022/10/23 06:06:48;;;;;;;22.88;16.20;;;;;;;6.01;82.29;99432.25;5095823;28;20217;-67
2022/10/23 06:09:14;;;;;;;22.38;15.10;;;;;;;6.09;82.59;99423.63;5093289;28;20024;-67
2022/10/23 06:11:41;;;;;;;22.58;15.88;;;;;;;6.14;82.30;99422.72;5097712;28;20277;-67
2022/10/23 06:14:09;;;;;;;25.83;16.90;;;;;;;6.03;82.66;99417.63;5097800;28;20036;-67
2022/10/23 06:16:35;;;;;;;22.92;15.73;;;;;;;6.04;82.64;99409.06;5083253;28;20050;-68
2022/10/23 06:19:00;;;;;;;22.02;16.40;;;;;;;6.10;81.84;99409.88;5094516;28;20024;-67
2022/10/23 06:21:26;;;;;;;24.83;16.35;;;;;;;6.16;81.93;99412.41;5091836;28;20043;-67
2022/10/23 06:23:52;;;;;;;21.33;15.95;;;;;;;6.28;81.81;99407.16;5092058;28;20029;-66
2022/10/23 06:26:18;;;;;;;22.27;15.85;;;;;;;6.02;82.33;99404.81;5094844;28;20317;-68
2022/10/23 06:28:44;;;;;;;25.05;15.70;;;;;;;6.08;82.13;99394.47;5090887;28;20220;-68
2022/10/23 06:31:13;;;;;;;26.73;16.30;;;;;;;6.23;82.17;99403.78;5093650;28;20107;-68
2022/10/23 06:33:39;;;;;;;25.50;17.13;;;;;;;6.12;82.24;99379.88;5095477;28;20027;-69
2022/10/23 06:36:09;;;;;;;23.83;17.13;;;;;;;6.16;82.14;99391.84;5080214;28;20047;-67
2022/10/23 06:38:39;;;;;;;25.42;16.90;;;;;;;5.94;82.38;99389.38;5076610;28;20028;-68
2022/10/23 06:41:09;;;;;;;27.05;17.35;;;;;;;6.08;82.20;99379.03;5092469;28;20026;-68
2022/10/23 06:43:35;;;;;;;25.00;16.65;;;;;;;6.30;81.57;99376.28;5092630;28;20016;-69
2022/10/23 06:46:02;;;;;;;26.05;17.42;;;;;;;6.31;81.57;99381.41;5097334;28;20079;-67
2022/10/23 06:48:28;;;;;;;23.10;15.50;;;;;;;6.48;81.56;99376.09;5098469;28;20257;-68
2022/10/23 06:50:54;;;;;;;23.38;15.05;;;;;;;6.56;81.14;99376.88;5093023;28;20065;-68
2022/10/23 06:53:22;;;;;;;28.45;16.75;;;;;;;6.61;80.47;99371.69;5092019;28;20070;-67
2022/10/23 06:55:48;;;;;;;27.00;17.23;;;;;;;6.57;79.97;99370.88;5086534;28;20096;-67
2022/10/23 06:58:13;;;;;;;22.35;15.75;;;;;;;6.76;80.55;99368.13;5082233;28;20021;-67
2022/10/23 07:00:39;;;;;;;26.30;17.75;;;;;;;6.76;80.66;99368.13;5096399;28;20040;-67
2022/10/23 07:03:07;;;;;;;27.27;17.60;;;;;;;6.62;80.69;99363.09;5095438;28;20020;-67
2022/10/23 07:05:33;;;;;;;31.00;17.45;;;;;;;6.70;81.06;99361.31;5091730;28;20105;-67
2022/10/23 07:07:59;;;;;;;27.48;17.27;;;;;;;6.81;80.02;99362.91;5104076;28;20066;-66
2022/10/23 07:10:25;;;;;;;24.15;16.50;;;;;;;6.76;79.84;99356.97;5084493;28;20024;-67
2022/10/23 07:12:51;;;;;;;25.85;17.88;;;;;;;6.86;80.34;99350.84;5097885;28;20147;-67
2022/10/23 07:15:16;;;;;;;27.90;17.85;;;;;;;6.97;79.72;99348.13;5103636;28;20028;-67
2022/10/23 07:17:42;;;;;;;26.48;17.20;;;;;;;6.95;79.22;99355.88;5098028;28;20073;-68
2022/10/23 07:20:08;;;;;;;25.75;18.23;;;;;;;6.73;80.38;99345.81;5096439;28;20324;-69
2022/10/23 07:22:33;;;;;;;24.30;16.20;;;;;;;6.69;80.66;99345.88;5087665;28;20028;-66
2022/10/23 07:24:59;;;;;;;26.20;18.00;;;;;;;6.63;80.97;99351.97;5087882;28;20065;-67
2022/10/23 07:27:25;;;;;;;25.85;17.80;;;;;;;6.73;80.56;99338.09;5089109;28;20032;-67
2022/10/23 07:29:51;;;;;;;30.63;18.23;;;;;;;6.86;80.46;99336.25;5097649;28;20186;-67
2022/10/23 07:32:17;;;;;;;27.77;17.45;;;;;;;6.80;80.07;99335.47;5091285;28;20020;-67
2022/10/23 07:34:43;;;;;;;23.83;17.88;;;;;;;6.76;80.95;99332.09;5091139;28;20098;-68
2022/10/23 07:37:08;;;;;;;29.58;18.77;;;;;;;6.81;80.68;99339.75;5092386;28;20052;-67
2022/10/23 07:39:34;;;;;;;33.88;21.80;;;;;;;6.88;80.69;99334.53;5094371;28;20051;-67
2022/10/23 07:41:59;;;;;;;33.78;20.67;;;;;;;7.05;79.73;99339.47;5093506;28;20020;-67
2022/10/23 07:44:25;;;;;;;33.40;20.70;;;;;;;7.01;79.38;99345.53;5094517;28;20020;-67
2022/10/23 07:46:51;;;;;;;31.67;18.90;;;;;;;7.07;79.73;99335.13;5091802;28;20274;-67
2022/10/23 07:49:17;;;;;;;24.25;17.88;;;;;;;7.25;79.76;99336.63;5093319;28;20024;-67
2022/10/23 07:51:43;;;;;;;26.52;18.58;;;;;;;7.26;79.41;99330.56;5094612;28;20024;-69
2022/10/23 07:54:10;;;;;;;26.17;17.85;;;;;;;7.01;79.73;99311.19;5096871;28;20236;-68
2022/10/23 07:56:36;;;;;;;28.00;19.50;;;;;;;7.04;80.26;99331.72;5098014;28;20026;-68
2022/10/23 07:59:02;;;;;;;23.75;17.30;;;;;;;7.09;79.95;99328.22;5094334;28;20021;-67
2022/10/23 08:01:31;;;;;;;28.27;18.65;;;;;;;7.08;79.21;99305.94;5096584;28;20068;-67
2022/10/23 08:03:57;;;;;;;30.48;19.33;;;;;;;6.85;79.62;99325.97;5095735;28;20091;-66
2022/10/23 08:06:23;;;;;;;28.67;20.08;;;;;;;6.87;80.36;99316.53;5098340;28;20028;-68
2022/10/23 08:08:49;;;;;;;26.30;18.65;;;;;;;7.15;79.90;99329.88;5096218;28;20043;-66
2022/10/23 08:11:23;;;;;;;29.40;19.45;;;;;;;7.04;79.34;99314.56;5095064;28;20244;-67
2022/10/23 08:13:50;;;;;;;31.10;19.95;;;;;;;7.10;79.39;99311.06;5097298;28;20013;-67
2022/10/23 08:16:16;;;;;;;26.33;19.25;;;;;;;7.41;79.63;99319.22;5096489;28;20027;-67
2022/10/23 08:18:44;;;;;;;28.02;19.83;;;;;;;7.29;79.30;99314.22;5093376;28;20024;-67
2022/10/23 08:21:10;;;;;;;38.42;23.17;;;;;;;7.26;78.77;99319.44;5095701;28;20039;-67
2022/10/23 08:23:36;;;;;;;32.88;22.33;;;;;;;7.36;79.44;99320.16;5095265;28;20031;-67
2022/10/23 08:26:04;;;;;;;33.38;22.52;;;;;;;7.45;78.73;99326.91;5096547;28;20083;-67
2022/10/23 08:28:30;;;;;;;33.45;20.63;;;;;;;7.51;78.89;99325.09;5094747;28;20328;-67
2022/10/23 08:30:56;;;;;;;29.00;19.90;;;;;;;7.37;78.88;99319.28;5095198;28;20021;-68
2022/10/23 08:33:22;;;;;;;34.05;22.75;;;;;;;7.24;79.43;99321.19;5095447;28;20017;-68
2022/10/23 08:35:47;;;;;;;37.72;21.75;;;;;;;7.38;79.34;99319.28;5096109;28;20071;-67
2022/10/23 08:38:13;;;;;;;32.75;23.02;;;;;;;7.27;79.09;99318.56;5094794;28;20026;-66
2022/10/23 08:40:44;;;;;;;36.97;23.27;;;;;;;7.25;79.75;99320.28;5095704;28;20208;-68
2022/10/23 08:43:10;;;;;;;36.42;23.38;;;;;;;7.35;78.96;99315.88;5095042;28;20092;-68
2022/10/23 08:45:43;;;;;;;36.95;23.40;;;;;;;7.19;80.46;99305.78;5093371;28;20347;-67
2022/10/23 08:48:29;;;;;;;38.03;22.60;;;;;;;7.35;79.15;99295.25;5091345;28;20032;-67
2022/10/23 08:51:22;;;;;;;33.65;22.08;;;;;;;7.59;78.53;99318.06;5095390;28;20028;-68
2022/10/23 08:53:53;;;;;;;42.58;23.85;;;;;;;7.63;77.82;99313.75;5091574;28;20081;-67
2022/10/23 08:56:27;;;;;;;38.03;24.42;;;;;;;7.56;79.52;99312.13;5101269;28;20058;-67
2022/10/23 08:58:56;;;;;;;41.67;23.40;;;;;;;7.59;79.25;99306.94;5087777;28;20029;-67
2022/10/23 09:01:30;;;;;;;40.08;24.65;;;;;;;7.46;78.92;99300.28;5087916;28;20040;-69
2022/10/23 09:03:56;;;;;;;38.63;24.85;;;;;;;7.56;79.41;99288.94;5085337;28;20072;-68
2022/10/23 09:06:44;;;;;;;43.97;25.40;;;;;;;7.65;79.21;99291.34;5099566;28;20020;-68
2022/10/23 09:09:41;;;;;;;36.40;24.52;;;;;;;7.59;78.62;99294.03;5086409;28;20232;-69
2022/10/23 09:12:19;;;;;;;43.33;23.48;;;;;;;7.65;78.50;99287.94;5092547;28;20053;-68
2022/10/23 09:15:03;;;;;;;40.10;23.58;;;;;;;7.55;78.75;99284.66;5105050;28;20102;-67
2022/10/23 09:17:36;;;;;;;44.30;26.58;;;;;;;7.38;79.12;99266.88;5102861;28;20332;-68
2022/10/23 09:20:31;;;;;;;40.63;24.77;;;;;;;7.43;79.60;99276.25;5084314;28;20058;-67
2022/10/23 09:23:06;;;;;;;37.42;22.95;;;;;;;7.55;78.83;99264.91;5098001;28;20044;-68
2022/10/23 09:25:40;;;;;;;39.97;24.55;;;;;;;7.35;80.20;99265.19;5103381;28;20251;-68
2022/10/23 09:28:15;;;;;;;43.72;24.75;;;;;;;7.59;80.34;99269.13;5090315;28;20092;-68
2022/10/23 09:30:41;;;;;;;42.35;24.75;;;;;;;7.67;79.91;99263.84;5092065;28;20029;-68
2022/10/23 09:33:20;;;;;;;40.83;25.23;;;;;;;7.68;79.81;99264.69;5092689;28;20028;-67
2022/10/23 09:35:57;;;;;;;39.92;24.45;;;;;;;7.56;79.07;99255.44;5099059;28;20031;-69
2022/10/23 09:38:28;;;;;;;44.58;26.17;;;;;;;7.40;80.65;99250.53;5095330;28;20269;-68
2022/10/23 09:40:54;;;;;;;39.10;24.88;;;;;;;7.66;80.21;99251.84;5095177;28;20024;-68
2022/10/23 09:43:26;;;;;;;38.28;25.50;;;;;;;7.44;80.70;99256.50;5095245;28;20027;-68
2022/10/23 09:46:03;;;;;;;56.28;31.83;;;;;;;7.15;81.77;99254.34;5094352;28;20047;-68
2022/10/23 09:48:29;;;;;;;49.83;27.70;;;;;;;7.15;81.71;99251.78;5093918;28;20039;-69
2022/10/23 09:51:03;;;;;;;47.15;27.42;;;;;;;7.15;81.30;99242.31;5094953;28;20256;-67
2022/10/23 09:53:36;;;;;;;51.40;29.10;;;;;;;7.40;81.54;99250.53;5074910;28;20034;-67
2022/10/23 09:56:23;;;;;;;45.28;25.38;;;;;;;7.25;81.06;99236.19;5095313;28;20035;-68
2022/10/23 09:58:56;;;;;;;46.38;27.95;;;;;;;7.20;82.09;99234.53;5094594;28;20362;-68
2022/10/23 10:01:24;;;;;;;47.08;27.05;;;;;;;7.28;81.41;99235.25;5095131;28;20032;-68
2022/10/23 10:03:51;;;;;;;46.90;27.05;;;;;;;7.09;82.98;99240.69;5097861;28;20208;-68
2022/10/23 10:06:31;;;;;;;43.83;25.95;;;;;;;7.06;82.34;99217.56;5098877;28;20024;-68
2022/10/23 10:09:00;;;;;;;41.42;25.63;;;;;;;7.42;82.03;99235.03;5096025;28;20020;-66
2022/10/23 10:11:36;;;;;;;40.83;25.33;;;;;;;7.38;81.40;99235.97;5093455;28;20023;-66
2022/10/23 10:14:23;;;;;;;40.55;25.67;;;;;;;7.42;81.35;99238.50;5093344;28;20112;-68
2022/10/23 10:16:59;;;;;;;48.83;26.90;;;;;;;7.37;81.63;99229.13;5095322;28;20024;-67
2022/10/23 10:19:39;;;;;;;45.95;26.38;;;;;;;7.33;81.77;99230.06;5087037;28;20026;-68
2022/10/23 10:22:21;;;;;;;41.30;26.25;;;;;;;7.06;82.12;99204.69;5083812;28;20032;-68
2022/10/23 10:25:16;;;;;;;42.40;24.77;;;;;;;7.18;82.04;99218.25;5092390;28;20034;-68
2022/10/23 10:28:19;;;;;;;38.83;25.05;;;;;;;7.42;81.67;99220.47;5064997;28;20056;-67
2022/10/23 10:31:09;;;;;;;41.30;25.38;;;;;;;7.25;83.12;99219.84;5096120;28;20032;-67
2022/10/23 10:34:00;;;;;;;44.65;25.17;;;;;;;7.28;83.55;99219.81;5104475;28;20055;-68
2022/10/23 10:36:29;;;;;;;44.47;25.97;;;;;;;7.36;83.06;99209.41;5096612;28;20040;-67
2022/10/23 10:39:02;;;;;;;44.00;25.20;;;;;;;7.27;83.63;99202.66;5116898;28;20039;-66
2022/10/23 10:41:39;;;;;;;38.58;25.23;;;;;;;7.45;82.50;99201.50;5085330;28;20040;-68
2022/10/23 10:44:07;;;;;;;41.75;25.38;;;;;;;7.46;82.86;99200.63;5104212;28;20019;-67
2022/10/23 10:46:43;;;;;;;43.92;25.70;;;;;;;7.43;82.98;99196.38;5086027;28;20040;-67
2022/10/23 10:49:19;;;;;;;41.78;24.98;;;;;;;7.39;82.34;99171.53;5097168;28;20036;-68
2022/10/23 10:52:25;;;;;;;50.42;26.23;;;;;;;7.21;83.85;99177.88;5095420;28;20150;-67
2022/10/23 10:55:17;;;;;;;42.90;25.83;;;;;;;7.21;83.90;99183.00;5079217;28;20039;-68
2022/10/23 10:57:45;;;;;;;;;;;;;;;7.29;84.43;99175.16;5092512;28;20070;-67
2022/10/23 11:00:18;;;;;;;42.90;26.27;;;;;;;7.26;83.48;99170.06;5092693;28;19904;-67
2022/10/23 11:03:20;;;;;;;41.40;26.08;;;;;;;7.27;83.87;99169.19;5093059;28;20044;-67
2022/10/23 11:05:50;;;;;;;44.50;26.50;;;;;;;7.32;84.15;99162.22;5087760;28;20031;-67
2022/10/23 11:08:20;;;;;;;45.25;27.33;;;;;;;7.18;84.59;99147.00;5093213;28;20024;-68
2022/10/23 11:10:51;;;;;;;47.42;28.25;;;;;;;6.96;84.95;99135.34;5091404;28;20016;-68
2022/10/23 11:13:26;;;;;;;46.03;28.33;;;;;;;7.17;85.13;99141.84;5077565;28;20212;-68
2022/10/23 11:15:58;;;;;;;45.78;27.85;;;;;;;7.23;84.25;99134.91;5092505;28;20020;-68
2022/10/23 11:18:27;;;;;;;45.97;27.20;;;;;;;7.12;84.44;99125.66;5092866;28;20040;-68
2022/10/23 11:20:57;;;;;;;50.10;27.75;;;;;;;7.19;84.48;99142.69;5093129;28;20057;-69
2022/10/23 11:23:44;;;;;;;46.88;27.60;;;;;;;7.24;84.71;99146.91;5092108;28;20075;-68
2022/10/23 11:26:42;;;;;;;49.53;27.58;;;;;;;7.42;84.08;99145.75;5090062;28;20036;-68
2022/10/23 11:29:40;;;;;;;40.75;25.13;;;;;;;7.56;84.07;99137.75;5092394;28;20040;-67
2022/10/23 11:32:24;;;;;;;43.22;26.00;;;;;;;7.60;83.99;99136.81;5077082;28;20028;-65
2022/10/23 11:35:12;;;;;;;45.08;27.05;;;;;;;7.60;83.95;99130.84;5109317;28;20028;-67
2022/10/23 11:37:37;;;;;;;49.88;26.52;;;;;;;7.53;84.42;99121.50;5092943;28;20036;-67
2022/10/23 11:40:06;;;;;;;44.88;27.48;;;;;;;7.52;85.40;99125.78;5093549;28;20032;-67
2022/10/23 11:42:37;;;;;;;50.47;30.35;;;;;;;7.52;85.51;99130.94;5092165;28;20036;-67
2022/10/23 11:45:03;;;;;;;46.92;28.80;;;;;;;7.48;85.83;99121.59;5087080;28;20057;-67